sensor_id;sensor_type;location;lat;lon;timestamp;pressure;altitude;pressure_sealevel;temperature;humidity
53940;BME280;39850;43.324;21.916;2023-04-07T00:17:49;991.0;;;5.2;69.0
53940;BME280;39850;43.324;21.916;2023-04-07T00:22:26;991.0;;;5.2;69.0
53940;BME280;39850;43.324;21.916;2023-04-07T00:27:03;991.0;;;5.1;69.0
53940;BME280;39850;43.324;21.916;2023-04-07T00:31:40;991.0;;;5.1;69.0
53940;BME280;39850;43.324;21.916;2023-04-07T00:36:16;991.0;;;4.9;70.0
53940;BME280;39850;43.324;21.916;2023-04-07T00:40:59;991.0;;;4.9;70.0
53940;BME280;39850;43.324;21.916;2023-04-07T00:45:37;991.0;;;4.6;70.0
53940;BME280;39850;43.324;21.916;2023-04-07T00:50:14;991.0;;;4.6;70.0
53940;BME280;39850;43.324;21.916;2023-04-07T00:54:54;991.0;;;4.4;71.0
53940;BME280;39850;43.324;21.916;2023-04-07T00:59:31;991.0;;;4.4;71.0
53940;BME280;39850;43.324;21.916;2023-04-07T01:34:54;991.0;;;4.5;72.0
53940;BME280;39850;43.324;21.916;2023-04-07T01:39:39;991.0;;;4.5;72.0
53940;BME280;39850;43.324;21.916;2023-04-07T01:44:19;991.0;;;4.5;72.0
53940;BME280;39850;43.324;21.916;2023-04-07T01:49:01;990.0;;;4.5;71.0
53940;BME280;39850;43.324;21.916;2023-04-07T01:53:39;990.0;;;4.5;71.0
53940;BME280;39850;43.324;21.916;2023-04-07T01:58:16;990.0;;;4.5;71.0
53940;BME280;39850;43.324;21.916;2023-04-07T02:03:25;990.0;;;4.5;71.0
53940;BME280;39850;43.324;21.916;2023-04-07T02:08:18;990.0;;;4.5;70.0
53940;BME280;39850;43.324;21.916;2023-04-07T02:13:12;990.0;;;4.5;70.0
53940;BME280;39850;43.324;21.916;2023-04-07T02:18:03;990.0;;;4.5;70.0
53940;BME280;39850;43.324;21.916;2023-04-07T02:22:43;990.0;;;4.5;70.0
53940;BME280;39850;43.324;21.916;2023-04-07T02:55:02;990.0;;;4.5;73.0
53940;BME280;39850;43.324;21.916;2023-04-07T02:59:40;990.0;;;4.5;73.0
53940;BME280;39850;43.324;21.916;2023-04-07T03:04:17;990.0;;;4.5;73.0
53940;BME280;39850;43.324;21.916;2023-04-07T03:08:54;990.0;;;4.2;73.0
53940;BME280;39850;43.324;21.916;2023-04-07T03:13:31;990.0;;;4.2;73.0
53940;BME280;39850;43.324;21.916;2023-04-07T03:18:08;990.0;;;4.0;73.0
53940;BME280;39850;43.324;21.916;2023-04-07T03:22:45;990.0;;;4.0;73.0
53940;BME280;39850;43.324;21.916;2023-04-07T03:27:22;990.0;;;3.8;73.0
53940;BME280;39850;43.324;21.916;2023-04-07T03:31:59;990.0;;;3.8;73.0
53940;BME280;39850;43.324;21.916;2023-04-07T03:36:35;990.0;;;3.5;73.0
53940;BME280;39850;43.324;21.916;2023-04-07T03:41:13;990.0;;;3.5;73.0
53940;BME280;39850;43.324;21.916;2023-04-07T04:18:10;991.0;;;4.5;72.0
53940;BME280;39850;43.324;21.916;2023-04-07T04:22:47;991.0;;;4.5;72.0
53940;BME280;39850;43.324;21.916;2023-04-07T04:27:23;991.0;;;4.5;72.0
53940;BME280;39850;43.324;21.916;2023-04-07T04:32:00;991.0;;;4.5;72.0
53940;BME280;39850;43.324;21.916;2023-04-07T04:36:38;991.0;;;4.5;72.0
53940;BME280;39850;43.324;21.916;2023-04-07T04:41:14;991.0;;;4.5;72.0
53940;BME280;39850;43.324;21.916;2023-04-07T04:45:51;991.0;;;4.4;73.0
53940;BME280;39850;43.324;21.916;2023-04-07T04:50:28;991.0;;;4.4;73.0
53940;BME280;39850;43.324;21.916;2023-04-07T04:55:09;991.0;;;4.4;73.0
53940;BME280;39850;43.324;21.916;2023-04-07T04:59:47;991.0;;;4.4;73.0
53940;BME280;39850;43.324;21.916;2023-04-07T05:04:24;991.0;;;4.4;73.0
53940;BME280;39850;43.324;21.916;2023-04-07T05:36:43;991.0;;;4.5;75.0
53940;BME280;39850;43.324;21.916;2023-04-07T05:41:20;991.0;;;4.5;75.0
53940;BME280;39850;43.324;21.916;2023-04-07T05:45:57;991.0;;;4.5;75.0
53940;BME280;39850;43.324;21.916;2023-04-07T05:50:34;991.0;;;4.5;75.0
53940;BME280;39850;43.324;21.916;2023-04-07T05:55:11;991.0;;;4.5;75.0
53940;BME280;39850;43.324;21.916;2023-04-07T05:59:48;991.0;;;4.5;76.0
53940;BME280;39850;43.324;21.916;2023-04-07T06:04:25;991.0;;;4.5;76.0
53940;BME280;39850;43.324;21.916;2023-04-07T06:09:02;991.0;;;4.5;76.0
53940;BME280;39850;43.324;21.916;2023-04-07T06:13:39;991.0;;;4.5;76.0
53940;BME280;39850;43.324;21.916;2023-04-07T06:18:16;991.0;;;4.5;76.0
53940;BME280;39850;43.324;21.916;2023-04-07T06:22:54;991.0;;;4.5;76.0
53940;BME280;39850;43.324;21.916;2023-04-07T06:59:46;991.0;;;4.4;75.0
53940;BME280;39850;43.324;21.916;2023-04-07T07:04:23;991.0;;;4.4;75.0
53940;BME280;39850;43.324;21.916;2023-04-07T07:09:00;991.0;;;4.8;73.0
53940;BME280;39850;43.324;21.916;2023-04-07T07:13:37;991.0;;;4.8;73.0
53940;BME280;39850;43.324;21.916;2023-04-07T07:18:13;991.0;;;5.3;72.0
53940;BME280;39850;43.324;21.916;2023-04-07T07:22:50;991.0;;;5.3;72.0
53940;BME280;39850;43.324;21.916;2023-04-07T07:27:27;991.0;;;5.4;72.0
53940;BME280;39850;43.324;21.916;2023-04-07T07:32:04;991.0;;;5.4;72.0
53940;BME280;39850;43.324;21.916;2023-04-07T07:36:41;991.0;;;5.4;71.0
53940;BME280;39850;43.324;21.916;2023-04-07T07:41:17;991.0;;;5.4;71.0
53940;BME280;39850;43.324;21.916;2023-04-07T08:18:13;992.0;;;6.4;67.0
53940;BME280;39850;43.324;21.916;2023-04-07T08:22:50;992.0;;;6.4;67.0
53940;BME280;39850;43.324;21.916;2023-04-07T08:27:27;992.0;;;6.4;67.0
53940;BME280;39850;43.324;21.916;2023-04-07T08:32:04;992.0;;;6.4;67.0
53940;BME280;39850;43.324;21.916;2023-04-07T08:36:41;992.0;;;6.4;66.0
53940;BME280;39850;43.324;21.916;2023-04-07T08:41:40;992.0;;;6.4;66.0
53940;BME280;39850;43.324;21.916;2023-04-07T08:46:25;992.0;;;6.4;65.0
53940;BME280;39850;43.324;21.916;2023-04-07T08:51:09;992.0;;;6.4;65.0
53940;BME280;39850;43.324;21.916;2023-04-07T08:55:50;992.0;;;6.4;65.0
53940;BME280;39850;43.324;21.916;2023-04-07T09:00:30;992.0;;;6.3;65.0
53940;BME280;39850;43.324;21.916;2023-04-07T09:05:12;992.0;;;6.3;65.0
53940;BME280;39850;43.324;21.916;2023-04-07T09:37:34;992.0;;;7.3;59.0
53940;BME280;39850;43.324;21.916;2023-04-07T09:42:11;992.0;;;7.3;59.0
53940;BME280;39850;43.324;21.916;2023-04-07T09:46:55;992.0;;;7.2;60.0
53940;BME280;39850;43.324;21.916;2023-04-07T09:51:33;992.0;;;7.2;60.0
53940;BME280;39850;43.324;21.916;2023-04-07T09:56:12;992.0;;;7.2;60.0
53940;BME280;39850;43.324;21.916;2023-04-07T10:00:50;992.0;;;7.0;59.0
53940;BME280;39850;43.324;21.916;2023-04-07T10:05:28;992.0;;;7.0;59.0
53940;BME280;39850;43.324;21.916;2023-04-07T10:10:10;992.0;;;6.6;60.0
53940;BME280;39850;43.324;21.916;2023-04-07T10:14:50;992.0;;;6.6;60.0
53940;BME280;39850;43.324;21.916;2023-04-07T10:19:35;992.0;;;6.2;59.0
53940;BME280;39850;43.324;21.916;2023-04-07T10:24:58;992.0;;;6.2;59.0
53940;BME280;39850;43.324;21.916;2023-04-07T10:59:15;992.0;;;8.2;59.0
53940;BME280;39850;43.324;21.916;2023-04-07T11:03:59;992.0;;;8.2;59.0
53940;BME280;39850;43.324;21.916;2023-04-07T11:08:45;992.0;;;7.9;59.0
53940;BME280;39850;43.324;21.916;2023-04-07T11:13:22;992.0;;;7.9;59.0
53940;BME280;39850;43.324;21.916;2023-04-07T11:18:21;992.0;;;7.6;59.0
53940;BME280;39850;43.324;21.916;2023-04-07T11:23:01;992.0;;;7.6;59.0
53940;BME280;39850;43.324;21.916;2023-04-07T11:27:37;992.0;;;7.4;60.0
53940;BME280;39850;43.324;21.916;2023-04-07T11:32:15;992.0;;;7.4;60.0
53940;BME280;39850;43.324;21.916;2023-04-07T11:36:52;992.0;;;7.1;60.0
53940;BME280;39850;43.324;21.916;2023-04-07T11:41:46;992.0;;;7.1;60.0
53940;BME280;39850;43.324;21.916;2023-04-07T11:46:23;992.0;;;7.1;60.0
53940;BME280;39850;43.324;21.916;2023-04-07T12:18:48;992.0;;;8.0;58.0
53940;BME280;39850;43.324;21.916;2023-04-07T12:23:25;992.0;;;8.0;58.0
53940;BME280;39850;43.324;21.916;2023-04-07T12:28:01;992.0;;;8.0;58.0
53940;BME280;39850;43.324;21.916;2023-04-07T12:32:39;992.0;;;8.0;58.0
53940;BME280;39850;43.324;21.916;2023-04-07T12:37:15;992.0;;;8.1;58.0
53940;BME280;39850;43.324;21.916;2023-04-07T12:41:52;992.0;;;8.1;58.0
53940;BME280;39850;43.324;21.916;2023-04-07T12:46:29;992.0;;;8.1;58.0
53940;BME280;39850;43.324;21.916;2023-04-07T12:51:06;992.0;;;8.1;59.0
53940;BME280;39850;43.324;21.916;2023-04-07T12:55:43;992.0;;;8.1;59.0
53940;BME280;39850;43.324;21.916;2023-04-07T13:00:21;992.0;;;8.2;59.0
53940;BME280;39850;43.324;21.916;2023-04-07T13:04:58;992.0;;;8.2;59.0
53940;BME280;39850;43.324;21.916;2023-04-07T13:37:15;992.0;;;8.0;59.0
53940;BME280;39850;43.324;21.916;2023-04-07T13:41:52;992.0;;;8.0;59.0
53940;BME280;39850;43.324;21.916;2023-04-07T13:46:29;992.0;;;8.0;59.0
53940;BME280;39850;43.324;21.916;2023-04-07T13:51:06;992.0;;;8.2;59.0
53940;BME280;39850;43.324;21.916;2023-04-07T13:55:42;992.0;;;8.2;59.0
53940;BME280;39850;43.324;21.916;2023-04-07T14:00:20;992.0;;;8.3;58.0
53940;BME280;39850;43.324;21.916;2023-04-07T14:04:57;992.0;;;8.3;58.0
53940;BME280;39850;43.324;21.916;2023-04-07T14:09:34;992.0;;;8.7;56.0
53940;BME280;39850;43.324;21.916;2023-04-07T14:14:11;992.0;;;8.7;56.0
53940;BME280;39850;43.324;21.916;2023-04-07T14:18:48;992.0;;;9.1;55.0
53940;BME280;39850;43.324;21.916;2023-04-07T14:23:24;992.0;;;9.1;55.0
53940;BME280;39850;43.324;21.916;2023-04-07T15:00:25;992.0;;;8.2;56.0
53940;BME280;39850;43.324;21.916;2023-04-07T15:05:05;992.0;;;8.2;56.0
53940;BME280;39850;43.324;21.916;2023-04-07T15:09:42;992.0;;;8.1;55.0
53940;BME280;39850;43.324;21.916;2023-04-07T15:14:18;992.0;;;8.1;55.0
53940;BME280;39850;43.324;21.916;2023-04-07T15:18:55;992.0;;;8.2;55.0
53940;BME280;39850;43.324;21.916;2023-04-07T15:23:32;992.0;;;8.2;55.0
53940;BME280;39850;43.324;21.916;2023-04-07T15:28:09;992.0;;;8.3;55.0
53940;BME280;39850;43.324;21.916;2023-04-07T15:32:59;992.0;;;8.3;55.0
53940;BME280;39850;43.324;21.916;2023-04-07T15:37:36;992.0;;;8.5;55.0
53940;BME280;39850;43.324;21.916;2023-04-07T15:42:12;992.0;;;8.5;55.0
53940;BME280;39850;43.324;21.916;2023-04-07T15:46:49;992.0;;;8.5;55.0
53940;BME280;39850;43.324;21.916;2023-04-07T16:19:11;992.0;;;8.0;57.0
53940;BME280;39850;43.324;21.916;2023-04-07T16:23:47;992.0;;;8.0;57.0
53940;BME280;39850;43.324;21.916;2023-04-07T16:28:24;992.0;;;8.0;57.0
53940;BME280;39850;43.324;21.916;2023-04-07T16:33:01;992.0;;;8.0;57.0
53940;BME280;39850;43.324;21.916;2023-04-07T16:37:41;992.0;;;8.0;57.0
53940;BME280;39850;43.324;21.916;2023-04-07T16:42:18;992.0;;;8.0;57.0
53940;BME280;39850;43.324;21.916;2023-04-07T16:46:54;992.0;;;8.0;57.0
53940;BME280;39850;43.324;21.916;2023-04-07T16:51:32;992.0;;;8.0;57.0
53940;BME280;39850;43.324;21.916;2023-04-07T16:56:16;992.0;;;8.0;57.0
53940;BME280;39850;43.324;21.916;2023-04-07T17:00:53;992.0;;;8.0;57.0
53940;BME280;39850;43.324;21.916;2023-04-07T17:05:30;992.0;;;8.0;57.0
53940;BME280;39850;43.324;21.916;2023-04-07T17:42:25;993.0;;;8.2;60.0
53940;BME280;39850;43.324;21.916;2023-04-07T17:47:02;993.0;;;8.2;60.0
53940;BME280;39850;43.324;21.916;2023-04-07T17:51:38;993.0;;;7.8;60.0
53940;BME280;39850;43.324;21.916;2023-04-07T17:56:15;993.0;;;7.8;60.0
53940;BME280;39850;43.324;21.916;2023-04-07T18:00:51;993.0;;;7.5;61.0
53940;BME280;39850;43.324;21.916;2023-04-07T18:05:28;993.0;;;7.5;61.0
53940;BME280;39850;43.324;21.916;2023-04-07T18:10:09;993.0;;;7.4;61.0
53940;BME280;39850;43.324;21.916;2023-04-07T18:14:46;993.0;;;7.4;61.0
53940;BME280;39850;43.324;21.916;2023-04-07T18:19:23;993.0;;;7.5;61.0
53940;BME280;39850;43.324;21.916;2023-04-07T18:24:00;993.0;;;7.5;61.0
53940;BME280;39850;43.324;21.916;2023-04-07T19:00:52;994.0;;;7.1;63.0
53940;BME280;39850;43.324;21.916;2023-04-07T19:05:28;994.0;;;7.1;63.0
53940;BME280;39850;43.324;21.916;2023-04-07T19:10:08;994.0;;;7.2;64.0
53940;BME280;39850;43.324;21.916;2023-04-07T19:14:45;994.0;;;7.2;64.0
53940;BME280;39850;43.324;21.916;2023-04-07T19:19:21;994.0;;;7.1;65.0
53940;BME280;39850;43.324;21.916;2023-04-07T19:23:58;994.0;;;7.1;65.0
53940;BME280;39850;43.324;21.916;2023-04-07T19:28:35;994.0;;;7.0;65.0
53940;BME280;39850;43.324;21.916;2023-04-07T19:33:12;994.0;;;7.0;65.0
53940;BME280;39850;43.324;21.916;2023-04-07T19:37:49;994.0;;;7.0;65.0
53940;BME280;39850;43.324;21.916;2023-04-07T19:42:28;993.0;;;6.8;66.0
53940;BME280;39850;43.324;21.916;2023-04-07T19:47:04;993.0;;;6.8;66.0
53940;BME280;39850;43.324;21.916;2023-04-07T20:28:35;994.0;;;7.3;67.0
53940;BME280;39850;43.324;21.916;2023-04-07T20:33:11;994.0;;;7.3;67.0
53940;BME280;39850;43.324;21.916;2023-04-07T20:37:48;994.0;;;7.3;67.0
53940;BME280;39850;43.324;21.916;2023-04-07T20:42:25;994.0;;;7.3;67.0
53940;BME280;39850;43.324;21.916;2023-04-07T20:47:07;994.0;;;7.3;67.0
53940;BME280;39850;43.324;21.916;2023-04-07T20:51:45;994.0;;;7.3;67.0
53940;BME280;39850;43.324;21.916;2023-04-07T20:56:22;994.0;;;7.3;67.0
53940;BME280;39850;43.324;21.916;2023-04-07T21:01:00;994.0;;;7.3;67.0
53940;BME280;39850;43.324;21.916;2023-04-07T21:05:37;994.0;;;7.3;67.0
53940;BME280;39850;43.324;21.916;2023-04-07T21:42:32;994.0;;;6.2;69.0
53940;BME280;39850;43.324;21.916;2023-04-07T21:47:09;994.0;;;6.2;69.0
53940;BME280;39850;43.324;21.916;2023-04-07T21:51:47;994.0;;;6.3;69.0
53940;BME280;39850;43.324;21.916;2023-04-07T21:56:24;994.0;;;6.3;69.0
53940;BME280;39850;43.324;21.916;2023-04-07T22:01:02;994.0;;;6.2;69.0
53940;BME280;39850;43.324;21.916;2023-04-07T22:05:39;994.0;;;6.2;69.0
53940;BME280;39850;43.324;21.916;2023-04-07T22:10:16;994.0;;;6.3;69.0
53940;BME280;39850;43.324;21.916;2023-04-07T22:14:53;994.0;;;6.3;69.0
53940;BME280;39850;43.324;21.916;2023-04-07T22:19:30;994.0;;;6.2;69.0
53940;BME280;39850;43.324;21.916;2023-04-07T22:24:07;994.0;;;6.2;69.0
53940;BME280;39850;43.324;21.916;2023-04-07T22:28:43;994.0;;;6.2;69.0
53940;BME280;39850;43.324;21.916;2023-04-07T23:00:58;993.0;;;7.1;67.0
53940;BME280;39850;43.324;21.916;2023-04-07T23:05:35;993.0;;;7.1;67.0
53940;BME280;39850;43.324;21.916;2023-04-07T23:10:11;993.0;;;7.2;68.0
53940;BME280;39850;43.324;21.916;2023-04-07T23:14:48;993.0;;;7.2;68.0
53940;BME280;39850;43.324;21.916;2023-04-07T23:19:25;993.0;;;7.2;67.0
53940;BME280;39850;43.324;21.916;2023-04-07T23:24:01;993.0;;;7.2;67.0
53940;BME280;39850;43.324;21.916;2023-04-07T23:28:39;993.0;;;7.2;67.0
53940;BME280;39850;43.324;21.916;2023-04-07T23:33:15;993.0;;;7.2;67.0
53940;BME280;39850;43.324;21.916;2023-04-07T23:37:52;993.0;;;7.2;67.0
53940;BME280;39850;43.324;21.916;2023-04-07T23:42:28;993.0;;;7.3;67.0
53940;BME280;39850;43.324;21.916;2023-04-07T23:47:05;993.0;;;7.3;67.0
